Terminal Aerodrome Forecast
Issued by NWS Twin Cities, MN

Home | Current Version | Previous Version | Text Only | Print | Product List | Glossary Off
Versions: 1 2 3 4 5 6 7 8 9 10 11 12

000
FTUS43 KMPX 011120
TAFEAU
TAF
KEAU 011120Z 0112/0212 16005KT P6SM SCT250
     FM011700 20009KT P6SM SCT050 BKN090
     FM020600 20005KT P6SM SCT060=

USA.gov is the U.S. government's official web portal to all federal, state and local government web resources and services.